sensor_id;sensor_type;location;lat;lon;timestamp;P1;durP1;ratioP1;P2;durP2;ratioP2
57615;SDS011;43816;52.054;-9.494;2022-12-08T00:00:07;15.60;;;14.10;;
57615;SDS011;43816;52.054;-9.494;2022-12-08T00:00:18;15.23;;;13.68;;
57615;SDS011;43816;52.054;-9.494;2022-12-08T00:00:29;14.87;;;13.37;;
57615;SDS011;43816;52.054;-9.494;2022-12-08T00:00:39;14.93;;;13.47;;
57615;SDS011;43816;52.054;-9.494;2022-12-08T00:00:49;14.90;;;13.50;;
57615;SDS011;43816;52.054;-9.494;2022-12-08T00:01:06;15.07;;;13.67;;
57615;SDS011;43816;52.054;-9.494;2022-12-08T00:01:24;15.40;;;13.90;;
57615;SDS011;43816;52.054;-9.494;2022-12-08T00:01:36;15.50;;;14.00;;
57615;SDS011;43816;52.054;-9.494;2022-12-08T00:01:47;15.25;;;13.85;;
57615;SDS011;43816;52.054;-9.494;2022-12-08T00:01:58;15.30;;;13.90;;
57615;SDS011;43816;52.054;-9.494;2022-12-08T00:02:10;15.25;;;13.85;;
57615;SDS011;43816;52.054;-9.494;2022-12-08T00:02:20;15.33;;;13.87;;
57615;SDS011;43816;52.054;-9.494;2022-12-08T00:02:30;14.73;;;13.33;;
57615;SDS011;43816;52.054;-9.494;2022-12-08T00:02:41;14.93;;;13.43;;
57615;SDS011;43816;52.054;-9.494;2022-12-08T00:02:51;14.63;;;13.23;;
57615;SDS011;43816;52.054;-9.494;2022-12-08T00:03:01;15.13;;;13.63;;
57615;SDS011;43816;52.054;-9.494;2022-12-08T00:03:11;15.13;;;13.68;;
57615;SDS011;43816;52.054;-9.494;2022-12-08T00:03:25;15.20;;;13.70;;
57615;SDS011;43816;52.054;-9.494;2022-12-08T00:03:36;14.75;;;13.35;;
57615;SDS011;43816;52.054;-9.494;2022-12-08T00:03:47;14.63;;;13.23;;
57615;SDS011;43816;52.054;-9.494;2022-12-08T00:03:58;14.63;;;13.23;;
57615;SDS011;43816;52.054;-9.494;2022-12-08T00:04:09;14.88;;;13.48;;
57615;SDS011;43816;52.054;-9.494;2022-12-08T00:04:20;14.60;;;13.20;;
57615;SDS011;43816;52.054;-9.494;2022-12-08T00:04:30;14.43;;;13.02;;
57615;SDS011;43816;52.054;-9.494;2022-12-08T00:04:40;14.70;;;13.30;;
57615;SDS011;43816;52.054;-9.494;2022-12-08T00:04:51;14.77;;;13.37;;
57615;SDS011;43816;52.054;-9.494;2022-12-08T00:05:01;15.20;;;13.70;;
57615;SDS011;43816;52.054;-9.494;2022-12-08T00:05:11;15.17;;;13.77;;
57615;SDS011;43816;52.054;-9.494;2022-12-08T00:05:21;15.10;;;13.60;;
57615;SDS011;43816;52.054;-9.494;2022-12-08T00:05:32;14.90;;;13.50;;
57615;SDS011;43816;52.054;-9.494;2022-12-08T00:05:48;14.38;;;13.00;;
57615;SDS011;43816;52.054;-9.494;2022-12-08T00:05:58;14.77;;;13.38;;
57615;SDS011;43816;52.054;-9.494;2022-12-08T00:06:14;14.95;;;13.55;;
57615;SDS011;43816;52.054;-9.494;2022-12-08T00:06:40;14.70;;;13.30;;
57615;SDS011;43816;52.054;-9.494;2022-12-08T00:06:52;14.32;;;13.02;;
57615;SDS011;43816;52.054;-9.494;2022-12-08T00:07:02;14.20;;;12.90;;
57615;SDS011;43816;52.054;-9.494;2022-12-08T00:07:12;14.27;;;12.97;;
57615;SDS011;43816;52.054;-9.494;2022-12-08T00:07:22;14.52;;;13.13;;
57615;SDS011;43816;52.054;-9.494;2022-12-08T00:07:33;14.43;;;13.13;;
57615;SDS011;43816;52.054;-9.494;2022-12-08T00:07:43;14.50;;;13.20;;
57615;SDS011;43816;52.054;-9.494;2022-12-08T00:07:53;14.33;;;13.03;;
57615;SDS011;43816;52.054;-9.494;2022-12-08T00:08:03;14.23;;;12.93;;
57615;SDS011;43816;52.054;-9.494;2022-12-08T00:08:14;13.90;;;12.60;;
57615;SDS011;43816;52.054;-9.494;2022-12-08T00:08:24;14.33;;;12.93;;
57615;SDS011;43816;52.054;-9.494;2022-12-08T00:08:34;14.57;;;13.18;;
57615;SDS011;43816;52.054;-9.494;2022-12-08T00:08:44;14.67;;;13.20;;
57615;SDS011;43816;52.054;-9.494;2022-12-08T00:08:55;14.50;;;13.10;;
57615;SDS011;43816;52.054;-9.494;2022-12-08T00:09:07;14.75;;;13.25;;
57615;SDS011;43816;52.054;-9.494;2022-12-08T00:09:23;15.10;;;13.60;;
57615;SDS011;43816;52.054;-9.494;2022-12-08T00:09:37;14.93;;;13.45;;
57615;SDS011;43816;52.054;-9.494;2022-12-08T00:09:49;14.23;;;12.93;;
57615;SDS011;43816;52.054;-9.494;2022-12-08T00:09:59;14.20;;;12.90;;
57615;SDS011;43816;52.054;-9.494;2022-12-08T00:10:10;14.33;;;13.03;;
57615;SDS011;43816;52.054;-9.494;2022-12-08T00:10:20;14.55;;;13.15;;
57615;SDS011;43816;52.054;-9.494;2022-12-08T00:10:30;14.00;;;12.70;;
57615;SDS011;43816;52.054;-9.494;2022-12-08T00:10:43;13.93;;;12.67;;
57615;SDS011;43816;52.054;-9.494;2022-12-08T00:10:54;13.95;;;12.75;;
57615;SDS011;43816;52.054;-9.494;2022-12-08T00:11:04;14.57;;;13.27;;
57615;SDS011;43816;52.054;-9.494;2022-12-08T00:11:15;14.45;;;13.10;;
57615;SDS011;43816;52.054;-9.494;2022-12-08T00:11:25;14.50;;;13.10;;
57615;SDS011;43816;52.054;-9.494;2022-12-08T00:11:36;14.15;;;12.77;;
57615;SDS011;43816;52.054;-9.494;2022-12-08T00:11:46;13.80;;;12.50;;
57615;SDS011;43816;52.054;-9.494;2022-12-08T00:12:02;14.32;;;12.93;;
57615;SDS011;43816;52.054;-9.494;2022-12-08T00:12:17;14.30;;;13.00;;
57615;SDS011;43816;52.054;-9.494;2022-12-08T00:12:27;13.77;;;12.50;;
57615;SDS011;43816;52.054;-9.494;2022-12-08T00:12:37;13.75;;;12.55;;
57615;SDS011;43816;52.054;-9.494;2022-12-08T00:12:47;13.90;;;12.60;;
57615;SDS011;43816;52.054;-9.494;2022-12-08T00:12:58;13.83;;;12.53;;
57615;SDS011;43816;52.054;-9.494;2022-12-08T00:13:08;14.15;;;12.75;;
57615;SDS011;43816;52.054;-9.494;2022-12-08T00:13:18;14.40;;;13.00;;
57615;SDS011;43816;52.054;-9.494;2022-12-08T00:13:29;14.57;;;13.20;;
57615;SDS011;43816;52.054;-9.494;2022-12-08T00:13:39;14.20;;;12.90;;
57615;SDS011;43816;52.054;-9.494;2022-12-08T00:13:50;14.03;;;12.73;;
57615;SDS011;43816;52.054;-9.494;2022-12-08T00:14:00;13.65;;;12.45;;
57615;SDS011;43816;52.054;-9.494;2022-12-08T00:14:10;13.47;;;12.27;;
57615;SDS011;43816;52.054;-9.494;2022-12-08T00:14:45;13.70;;;12.50;;
57615;SDS011;43816;52.054;-9.494;2022-12-08T00:14:56;13.70;;;12.45;;
57615;SDS011;43816;52.054;-9.494;2022-12-08T00:15:06;13.73;;;12.53;;
57615;SDS011;43816;52.054;-9.494;2022-12-08T00:15:17;13.52;;;12.32;;
57615;SDS011;43816;52.054;-9.494;2022-12-08T00:15:27;13.77;;;12.47;;
57615;SDS011;43816;52.054;-9.494;2022-12-08T00:15:40;14.10;;;12.80;;
57615;SDS011;43816;52.054;-9.494;2022-12-08T00:15:50;14.13;;;12.83;;
57615;SDS011;43816;52.054;-9.494;2022-12-08T00:16:00;13.90;;;12.60;;
57615;SDS011;43816;52.054;-9.494;2022-12-08T00:16:11;13.50;;;12.30;;
57615;SDS011;43816;52.054;-9.494;2022-12-08T00:16:21;13.55;;;12.25;;
57615;SDS011;43816;52.054;-9.494;2022-12-08T00:16:32;13.57;;;12.27;;
57615;SDS011;43816;52.054;-9.494;2022-12-08T00:16:42;13.70;;;12.40;;
57615;SDS011;43816;52.054;-9.494;2022-12-08T00:16:52;13.70;;;12.40;;
57615;SDS011;43816;52.054;-9.494;2022-12-08T00:17:04;14.00;;;12.70;;
57615;SDS011;43816;52.054;-9.494;2022-12-08T00:17:15;13.90;;;12.60;;
57615;SDS011;43816;52.054;-9.494;2022-12-08T00:17:26;13.57;;;12.27;;
57615;SDS011;43816;52.054;-9.494;2022-12-08T00:17:36;13.03;;;11.73;;
57615;SDS011;43816;52.054;-9.494;2022-12-08T00:17:46;12.90;;;11.67;;
57615;SDS011;43816;52.054;-9.494;2022-12-08T00:17:57;13.20;;;12.00;;
57615;SDS011;43816;52.054;-9.494;2022-12-08T00:18:07;13.35;;;12.15;;
57615;SDS011;43816;52.054;-9.494;2022-12-08T00:18:17;13.47;;;12.27;;
57615;SDS011;43816;52.054;-9.494;2022-12-08T00:18:27;13.47;;;12.27;;
57615;SDS011;43816;52.054;-9.494;2022-12-08T00:18:38;13.57;;;12.32;;
57615;SDS011;43816;52.054;-9.494;2022-12-08T00:18:48;13.37;;;12.17;;
57615;SDS011;43816;52.054;-9.494;2022-12-08T00:18:59;13.18;;;11.98;;
57615;SDS011;43816;52.054;-9.494;2022-12-08T00:19:09;12.83;;;11.70;;
57615;SDS011;43816;52.054;-9.494;2022-12-08T00:19:19;12.97;;;11.77;;
57615;SDS011;43816;52.054;-9.494;2022-12-08T00:19:30;13.15;;;11.95;;
57615;SDS011;43816;52.054;-9.494;2022-12-08T00:19:41;13.43;;;12.20;;
57615;SDS011;43816;52.054;-9.494;2022-12-08T00:19:52;13.30;;;12.10;;
57615;SDS011;43816;52.054;-9.494;2022-12-08T00:20:02;13.00;;;11.90;;
57615;SDS011;43816;52.054;-9.494;2022-12-08T00:20:12;12.80;;;11.70;;
57615;SDS011;43816;52.054;-9.494;2022-12-08T00:20:23;13.03;;;11.93;;
57615;SDS011;43816;52.054;-9.494;2022-12-08T00:20:33;12.93;;;11.83;;
57615;SDS011;43816;52.054;-9.494;2022-12-08T00:20:43;12.85;;;11.68;;
57615;SDS011;43816;52.054;-9.494;2022-12-08T00:20:54;12.70;;;11.60;;
57615;SDS011;43816;52.054;-9.494;2022-12-08T00:21:05;12.60;;;11.50;;
57615;SDS011;43816;52.054;-9.494;2022-12-08T00:21:16;12.57;;;11.47;;
57615;SDS011;43816;52.054;-9.494;2022-12-08T00:21:27;12.57;;;11.47;;
57615;SDS011;43816;52.054;-9.494;2022-12-08T00:21:37;12.77;;;11.68;;
57615;SDS011;43816;52.054;-9.494;2022-12-08T00:21:48;12.93;;;11.73;;
57615;SDS011;43816;52.054;-9.494;2022-12-08T00:21:58;12.73;;;11.57;;
57615;SDS011;43816;52.054;-9.494;2022-12-08T00:22:09;12.57;;;11.37;;
57615;SDS011;43816;52.054;-9.494;2022-12-08T00:22:20;12.85;;;11.65;;
57615;SDS011;43816;52.054;-9.494;2022-12-08T00:22:31;13.00;;;11.80;;
57615;SDS011;43816;52.054;-9.494;2022-12-08T00:22:41;13.07;;;11.88;;
57615;SDS011;43816;52.054;-9.494;2022-12-08T00:22:51;12.90;;;11.70;;
57615;SDS011;43816;52.054;-9.494;2022-12-08T00:23:01;12.93;;;11.73;;
57615;SDS011;43816;52.054;-9.494;2022-12-08T00:23:12;12.95;;;11.80;;
57615;SDS011;43816;52.054;-9.494;2022-12-08T00:23:22;13.10;;;11.90;;
57615;SDS011;43816;52.054;-9.494;2022-12-08T00:23:32;12.87;;;11.77;;
57615;SDS011;43816;52.054;-9.494;2022-12-08T00:23:43;13.10;;;11.90;;
57615;SDS011;43816;52.054;-9.494;2022-12-08T00:23:54;12.70;;;11.60;;
57615;SDS011;43816;52.054;-9.494;2022-12-08T00:24:05;13.13;;;11.85;;
57615;SDS011;43816;52.054;-9.494;2022-12-08T00:24:16;13.00;;;11.80;;
57615;SDS011;43816;52.054;-9.494;2022-12-08T00:24:30;13.40;;;12.10;;
57615;SDS011;43816;52.054;-9.494;2022-12-08T00:24:42;12.95;;;11.75;;
57615;SDS011;43816;52.054;-9.494;2022-12-08T00:24:53;13.07;;;11.88;;
57615;SDS011;43816;52.054;-9.494;2022-12-08T00:25:03;12.90;;;11.70;;
57615;SDS011;43816;52.054;-9.494;2022-12-08T00:25:14;12.85;;;11.65;;
57615;SDS011;43816;52.054;-9.494;2022-12-08T00:25:24;12.80;;;11.60;;
57615;SDS011;43816;52.054;-9.494;2022-12-08T00:25:34;12.73;;;11.53;;
57615;SDS011;43816;52.054;-9.494;2022-12-08T00:25:45;12.80;;;11.60;;
57615;SDS011;43816;52.054;-9.494;2022-12-08T00:25:55;12.80;;;11.60;;
57615;SDS011;43816;52.054;-9.494;2022-12-08T00:26:05;12.97;;;11.80;;
57615;SDS011;43816;52.054;-9.494;2022-12-08T00:26:16;12.88;;;11.68;;
57615;SDS011;43816;52.054;-9.494;2022-12-08T00:26:26;12.43;;;11.23;;
57615;SDS011;43816;52.054;-9.494;2022-12-08T00:26:37;12.15;;;11.05;;
57615;SDS011;43816;52.054;-9.494;2022-12-08T00:26:47;12.13;;;11.03;;
57615;SDS011;43816;52.054;-9.494;2022-12-08T00:26:58;12.40;;;11.30;;
57615;SDS011;43816;52.054;-9.494;2022-12-08T00:27:09;12.37;;;11.27;;
57615;SDS011;43816;52.054;-9.494;2022-12-08T00:27:21;12.30;;;11.20;;
57615;SDS011;43816;52.054;-9.494;2022-12-08T00:27:32;12.40;;;11.25;;
57615;SDS011;43816;52.054;-9.494;2022-12-08T00:27:42;12.40;;;11.27;;
57615;SDS011;43816;52.054;-9.494;2022-12-08T00:27:52;12.30;;;11.20;;
57615;SDS011;43816;52.054;-9.494;2022-12-08T00:28:02;12.53;;;11.43;;
57615;SDS011;43816;52.054;-9.494;2022-12-08T00:28:13;12.50;;;11.40;;
57615;SDS011;43816;52.054;-9.494;2022-12-08T00:28:23;12.80;;;11.60;;
57615;SDS011;43816;52.054;-9.494;2022-12-08T00:28:33;12.50;;;11.40;;
57615;SDS011;43816;52.054;-9.494;2022-12-08T00:28:44;12.47;;;11.37;;
57615;SDS011;43816;52.054;-9.494;2022-12-08T00:28:54;12.32;;;11.23;;
57615;SDS011;43816;52.054;-9.494;2022-12-08T00:29:05;12.03;;;11.03;;
57615;SDS011;43816;52.054;-9.494;2022-12-08T00:29:15;11.93;;;10.93;;
57615;SDS011;43816;52.054;-9.494;2022-12-08T00:29:26;11.93;;;10.93;;
57615;SDS011;43816;52.054;-9.494;2022-12-08T00:29:37;12.10;;;11.00;;
57615;SDS011;43816;52.054;-9.494;2022-12-08T00:29:47;12.27;;;11.18;;
57615;SDS011;43816;52.054;-9.494;2022-12-08T00:29:58;12.27;;;11.17;;
57615;SDS011;43816;52.054;-9.494;2022-12-08T00:30:08;12.80;;;11.63;;
57615;SDS011;43816;52.054;-9.494;2022-12-08T00:30:18;12.82;;;11.65;;
57615;SDS011;43816;52.054;-9.494;2022-12-08T00:30:29;12.90;;;11.70;;
57615;SDS011;43816;52.054;-9.494;2022-12-08T00:30:39;12.63;;;11.52;;
57615;SDS011;43816;52.054;-9.494;2022-12-08T00:30:50;12.55;;;11.38;;
57615;SDS011;43816;52.054;-9.494;2022-12-08T00:31:07;12.37;;;11.27;;
57615;SDS011;43816;52.054;-9.494;2022-12-08T00:31:18;12.40;;;11.20;;
57615;SDS011;43816;52.054;-9.494;2022-12-08T00:31:29;12.40;;;11.20;;
57615;SDS011;43816;52.054;-9.494;2022-12-08T00:31:39;12.43;;;11.23;;
57615;SDS011;43816;52.054;-9.494;2022-12-08T00:31:50;12.15;;;11.05;;
57615;SDS011;43816;52.054;-9.494;2022-12-08T00:32:00;11.90;;;10.90;;
57615;SDS011;43816;52.054;-9.494;2022-12-08T00:32:10;12.17;;;11.10;;
57615;SDS011;43816;52.054;-9.494;2022-12-08T00:32:21;12.32;;;11.23;;
57615;SDS011;43816;52.054;-9.494;2022-12-08T00:32:31;12.47;;;11.37;;
57615;SDS011;43816;52.054;-9.494;2022-12-08T00:32:41;12.17;;;11.07;;
57615;SDS011;43816;52.054;-9.494;2022-12-08T00:32:51;11.90;;;10.90;;
57615;SDS011;43816;52.054;-9.494;2022-12-08T00:33:02;12.10;;;11.00;;
57615;SDS011;43816;52.054;-9.494;2022-12-08T00:33:12;12.10;;;11.00;;
57615;SDS011;43816;52.054;-9.494;2022-12-08T00:33:22;12.27;;;11.18;;
57615;SDS011;43816;52.054;-9.494;2022-12-08T00:33:33;12.00;;;10.90;;
57615;SDS011;43816;52.054;-9.494;2022-12-08T00:33:43;12.10;;;11.00;;
57615;SDS011;43816;52.054;-9.494;2022-12-08T00:33:54;11.83;;;10.73;;
57615;SDS011;43816;52.054;-9.494;2022-12-08T00:34:05;12.00;;;10.90;;
57615;SDS011;43816;52.054;-9.494;2022-12-08T00:34:15;12.18;;;11.07;;
57615;SDS011;43816;52.054;-9.494;2022-12-08T00:34:26;12.20;;;11.10;;
57615;SDS011;43816;52.054;-9.494;2022-12-08T00:34:36;12.25;;;11.15;;
57615;SDS011;43816;52.054;-9.494;2022-12-08T00:34:46;11.97;;;10.97;;
57615;SDS011;43816;52.054;-9.494;2022-12-08T00:34:57;12.03;;;11.03;;
57615;SDS011;43816;52.054;-9.494;2022-12-08T00:35:07;12.15;;;11.05;;
57615;SDS011;43816;52.054;-9.494;2022-12-08T00:35:17;12.30;;;11.20;;
57615;SDS011;43816;52.054;-9.494;2022-12-08T00:35:28;12.23;;;11.13;;
57615;SDS011;43816;52.054;-9.494;2022-12-08T00:35:38;11.87;;;10.87;;
57615;SDS011;43816;52.054;-9.494;2022-12-08T00:35:48;11.70;;;10.70;;
57615;SDS011;43816;52.054;-9.494;2022-12-08T00:36:04;12.05;;;11.05;;
57615;SDS011;43816;52.054;-9.494;2022-12-08T00:36:15;12.32;;;11.23;;
57615;SDS011;43816;52.054;-9.494;2022-12-08T00:36:26;12.60;;;11.50;;
57615;SDS011;43816;52.054;-9.494;2022-12-08T00:36:36;12.53;;;11.43;;
57615;SDS011;43816;52.054;-9.494;2022-12-08T00:36:46;12.55;;;11.45;;
57615;SDS011;43816;52.054;-9.494;2022-12-08T00:36:57;12.40;;;11.30;;
57615;SDS011;43816;52.054;-9.494;2022-12-08T00:37:07;12.33;;;11.23;;
57615;SDS011;43816;52.054;-9.494;2022-12-08T00:37:17;12.20;;;11.10;;
57615;SDS011;43816;52.054;-9.494;2022-12-08T00:37:28;12.30;;;11.20;;
57615;SDS011;43816;52.054;-9.494;2022-12-08T00:37:38;12.17;;;11.07;;
57615;SDS011;43816;52.054;-9.494;2022-12-08T00:37:48;12.07;;;11.07;;
57615;SDS011;43816;52.054;-9.494;2022-12-08T00:37:59;12.10;;;11.00;;
57615;SDS011;43816;52.054;-9.494;2022-12-08T00:38:09;12.43;;;11.33;;
57615;SDS011;43816;52.054;-9.494;2022-12-08T00:38:19;12.32;;;11.23;;
57615;SDS011;43816;52.054;-9.494;2022-12-08T00:38:29;12.23;;;11.13;;
57615;SDS011;43816;52.054;-9.494;2022-12-08T00:38:40;11.63;;;10.60;;
57615;SDS011;43816;52.054;-9.494;2022-12-08T00:38:51;11.55;;;10.55;;
57615;SDS011;43816;52.054;-9.494;2022-12-08T00:39:01;12.07;;;10.97;;
57615;SDS011;43816;52.054;-9.494;2022-12-08T00:39:12;12.20;;;11.10;;
57615;SDS011;43816;52.054;-9.494;2022-12-08T00:39:24;12.43;;;11.32;;
57615;SDS011;43816;52.054;-9.494;2022-12-08T00:39:34;12.07;;;10.97;;
57615;SDS011;43816;52.054;-9.494;2022-12-08T00:39:44;11.97;;;10.87;;
57615;SDS011;43816;52.054;-9.494;2022-12-08T00:39:55;11.80;;;10.70;;
57615;SDS011;43816;52.054;-9.494;2022-12-08T00:40:05;11.67;;;10.67;;
57615;SDS011;43816;52.054;-9.494;2022-12-08T00:40:16;11.68;;;10.68;;
57615;SDS011;43816;52.054;-9.494;2022-12-08T00:40:26;11.63;;;10.60;;
57615;SDS011;43816;52.054;-9.494;2022-12-08T00:40:37;11.88;;;10.77;;
57615;SDS011;43816;52.054;-9.494;2022-12-08T00:40:47;12.10;;;11.00;;
57615;SDS011;43816;52.054;-9.494;2022-12-08T00:40:57;12.37;;;11.23;;
57615;SDS011;43816;52.054;-9.494;2022-12-08T00:41:11;12.30;;;11.20;;
57615;SDS011;43816;52.054;-9.494;2022-12-08T00:41:23;12.07;;;10.98;;
57615;SDS011;43816;52.054;-9.494;2022-12-08T00:41:35;12.23;;;11.13;;
57615;SDS011;43816;52.054;-9.494;2022-12-08T00:41:45;12.27;;;11.17;;
57615;SDS011;43816;52.054;-9.494;2022-12-08T00:41:55;12.50;;;11.40;;
57615;SDS011;43816;52.054;-9.494;2022-12-08T00:42:06;12.07;;;11.07;;
57615;SDS011;43816;52.054;-9.494;2022-12-08T00:42:17;11.93;;;10.93;;
57615;SDS011;43816;52.054;-9.494;2022-12-08T00:42:27;11.77;;;10.77;;
57615;SDS011;43816;52.054;-9.494;2022-12-08T00:42:37;11.90;;;10.90;;
57615;SDS011;43816;52.054;-9.494;2022-12-08T00:42:47;12.40;;;11.30;;
57615;SDS011;43816;52.054;-9.494;2022-12-08T00:42:58;12.13;;;11.02;;
57615;SDS011;43816;52.054;-9.494;2022-12-08T00:43:08;12.20;;;11.10;;
57615;SDS011;43816;52.054;-9.494;2022-12-08T00:43:18;11.97;;;10.87;;
57615;SDS011;43816;52.054;-9.494;2022-12-08T00:43:29;12.27;;;11.27;;
57615;SDS011;43816;52.054;-9.494;2022-12-08T00:43:39;12.30;;;11.20;;
57615;SDS011;43816;52.054;-9.494;2022-12-08T00:43:49;12.03;;;11.03;;
57615;SDS011;43816;52.054;-9.494;2022-12-08T00:44:00;11.63;;;10.63;;
57615;SDS011;43816;52.054;-9.494;2022-12-08T00:44:11;11.30;;;10.30;;
57615;SDS011;43816;52.054;-9.494;2022-12-08T00:44:23;11.68;;;10.48;;
57615;SDS011;43816;52.054;-9.494;2022-12-08T00:44:34;11.90;;;10.70;;
57615;SDS011;43816;52.054;-9.494;2022-12-08T00:44:44;11.60;;;10.60;;
57615;SDS011;43816;52.054;-9.494;2022-12-08T00:44:54;11.43;;;10.43;;
57615;SDS011;43816;52.054;-9.494;2022-12-08T00:45:05;11.43;;;10.43;;
57615;SDS011;43816;52.054;-9.494;2022-12-08T00:45:15;11.80;;;10.70;;
57615;SDS011;43816;52.054;-9.494;2022-12-08T00:45:26;11.57;;;10.57;;
57615;SDS011;43816;52.054;-9.494;2022-12-08T00:45:36;11.47;;;10.47;;
57615;SDS011;43816;52.054;-9.494;2022-12-08T00:45:46;11.43;;;10.43;;
57615;SDS011;43816;52.054;-9.494;2022-12-08T00:45:57;11.53;;;10.53;;
57615;SDS011;43816;52.054;-9.494;2022-12-08T00:46:07;11.97;;;10.87;;
57615;SDS011;43816;52.054;-9.494;2022-12-08T00:46:18;12.02;;;10.93;;
57615;SDS011;43816;52.054;-9.494;2022-12-08T00:46:28;12.07;;;10.97;;
57615;SDS011;43816;52.054;-9.494;2022-12-08T00:46:38;11.48;;;10.48;;
57615;SDS011;43816;52.054;-9.494;2022-12-08T00:46:49;11.70;;;10.68;;
57615;SDS011;43816;52.054;-9.494;2022-12-08T00:46:59;11.63;;;10.63;;
57615;SDS011;43816;52.054;-9.494;2022-12-08T00:47:10;11.77;;;10.73;;
57615;SDS011;43816;52.054;-9.494;2022-12-08T00:47:21;11.50;;;10.50;;
57615;SDS011;43816;52.054;-9.494;2022-12-08T00:47:31;11.93;;;10.87;;
57615;SDS011;43816;52.054;-9.494;2022-12-08T00:47:42;12.13;;;11.03;;
57615;SDS011;43816;52.054;-9.494;2022-12-08T00:47:52;11.80;;;10.80;;
57615;SDS011;43816;52.054;-9.494;2022-12-08T00:48:02;11.30;;;10.30;;
57615;SDS011;43816;52.054;-9.494;2022-12-08T00:48:13;11.25;;;10.25;;
57615;SDS011;43816;52.054;-9.494;2022-12-08T00:48:23;11.43;;;10.43;;
57615;SDS011;43816;52.054;-9.494;2022-12-08T00:48:33;11.87;;;10.77;;
57615;SDS011;43816;52.054;-9.494;2022-12-08T00:48:43;12.10;;;11.00;;
57615;SDS011;43816;52.054;-9.494;2022-12-08T00:48:54;11.53;;;10.53;;
57615;SDS011;43816;52.054;-9.494;2022-12-08T00:49:04;11.17;;;10.17;;
57615;SDS011;43816;52.054;-9.494;2022-12-08T00:49:15;10.80;;;9.80;;
57615;SDS011;43816;52.054;-9.494;2022-12-08T00:49:26;10.77;;;9.80;;
57615;SDS011;43816;52.054;-9.494;2022-12-08T00:49:36;10.93;;;9.93;;
57615;SDS011;43816;52.054;-9.494;2022-12-08T00:49:46;11.27;;;10.27;;
57615;SDS011;43816;52.054;-9.494;2022-12-08T00:49:57;11.50;;;10.50;;
57615;SDS011;43816;52.054;-9.494;2022-12-08T00:50:07;11.63;;;10.63;;
57615;SDS011;43816;52.054;-9.494;2022-12-08T00:50:18;11.43;;;10.43;;
57615;SDS011;43816;52.054;-9.494;2022-12-08T00:50:28;11.47;;;10.47;;
57615;SDS011;43816;52.054;-9.494;2022-12-08T00:50:40;11.52;;;10.52;;
57615;SDS011;43816;52.054;-9.494;2022-12-08T00:50:50;11.63;;;10.63;;
57615;SDS011;43816;52.054;-9.494;2022-12-08T00:51:00;11.40;;;10.40;;
57615;SDS011;43816;52.054;-9.494;2022-12-08T00:51:11;11.10;;;10.13;;
57615;SDS011;43816;52.054;-9.494;2022-12-08T00:51:21;11.27;;;10.27;;
57615;SDS011;43816;52.054;-9.494;2022-12-08T00:51:31;11.30;;;10.30;;
57615;SDS011;43816;52.054;-9.494;2022-12-08T00:51:43;11.45;;;10.45;;
57615;SDS011;43816;52.054;-9.494;2022-12-08T00:51:53;11.25;;;10.25;;
57615;SDS011;43816;52.054;-9.494;2022-12-08T00:52:04;11.13;;;10.13;;
57615;SDS011;43816;52.054;-9.494;2022-12-08T00:52:14;10.82;;;9.93;;
57615;SDS011;43816;52.054;-9.494;2022-12-08T00:52:24;10.77;;;9.87;;
57615;SDS011;43816;52.054;-9.494;2022-12-08T00:52:35;10.53;;;9.63;;
57615;SDS011;43816;52.054;-9.494;2022-12-08T00:52:45;10.63;;;9.70;;
57615;SDS011;43816;52.054;-9.494;2022-12-08T00:52:56;10.80;;;9.80;;
57615;SDS011;43816;52.054;-9.494;2022-12-08T00:53:06;10.93;;;9.93;;
57615;SDS011;43816;52.054;-9.494;2022-12-08T00:53:16;10.77;;;9.87;;
57615;SDS011;43816;52.054;-9.494;2022-12-08T00:53:26;10.90;;;9.98;;
57615;SDS011;43816;52.054;-9.494;2022-12-08T00:53:37;10.70;;;9.80;;
57615;SDS011;43816;52.054;-9.494;2022-12-08T00:53:47;10.60;;;9.70;;
57615;SDS011;43816;52.054;-9.494;2022-12-08T00:53:57;10.47;;;9.57;;
57615;SDS011;43816;52.054;-9.494;2022-12-08T00:54:08;10.65;;;9.75;;
57615;SDS011;43816;52.054;-9.494;2022-12-08T00:54:19;10.90;;;9.95;;
57615;SDS011;43816;52.054;-9.494;2022-12-08T00:54:29;10.90;;;10.00;;
57615;SDS011;43816;52.054;-9.494;2022-12-08T00:54:40;11.00;;;10.10;;
57615;SDS011;43816;52.054;-9.494;2022-12-08T00:54:50;10.97;;;10.07;;
57615;SDS011;43816;52.054;-9.494;2022-12-08T00:55:00;10.85;;;9.95;;
57615;SDS011;43816;52.054;-9.494;2022-12-08T00:55:11;10.80;;;9.90;;
57615;SDS011;43816;52.054;-9.494;2022-12-08T00:55:21;10.90;;;10.00;;
57615;SDS011;43816;52.054;-9.494;2022-12-08T00:55:31;11.20;;;10.20;;
57615;SDS011;43816;52.054;-9.494;2022-12-08T00:55:42;11.13;;;10.13;;
57615;SDS011;43816;52.054;-9.494;2022-12-08T00:55:52;10.82;;;9.85;;
57615;SDS011;43816;52.054;-9.494;2022-12-08T00:56:02;10.50;;;9.60;;
57615;SDS011;43816;52.054;-9.494;2022-12-08T00:56:13;10.40;;;9.50;;
57615;SDS011;43816;52.054;-9.494;2022-12-08T00:56:23;10.70;;;9.80;;
57615;SDS011;43816;52.054;-9.494;2022-12-08T00:56:33;10.70;;;9.80;;
57615;SDS011;43816;52.054;-9.494;2022-12-08T00:56:44;10.63;;;9.73;;
57615;SDS011;43816;52.054;-9.494;2022-12-08T00:56:55;10.35;;;9.45;;
57615;SDS011;43816;52.054;-9.494;2022-12-08T00:57:05;10.43;;;9.53;;
57615;SDS011;43816;52.054;-9.494;2022-12-08T00:57:15;10.60;;;9.70;;
57615;SDS011;43816;52.054;-9.494;2022-12-08T00:57:25;10.70;;;9.80;;
57615;SDS011;43816;52.054;-9.494;2022-12-08T00:57:36;10.70;;;9.80;;
57615;SDS011;43816;52.054;-9.494;2022-12-08T00:57:46;10.83;;;9.87;;
57615;SDS011;43816;52.054;-9.494;2022-12-08T00:57:56;10.90;;;9.87;;
57615;SDS011;43816;52.054;-9.494;2022-12-08T00:58:06;11.07;;;9.97;;
57615;SDS011;43816;52.054;-9.494;2022-12-08T00:58:20;11.07;;;10.07;;
57615;SDS011;43816;52.054;-9.494;2022-12-08T00:58:30;11.00;;;10.00;;
57615;SDS011;43816;52.054;-9.494;2022-12-08T00:58:40;11.07;;;10.07;;
57615;SDS011;43816;52.054;-9.494;2022-12-08T00:58:50;10.67;;;9.77;;
57615;SDS011;43816;52.054;-9.494;2022-12-08T00:59:02;10.70;;;9.80;;
57615;SDS011;43816;52.054;-9.494;2022-12-08T00:59:13;10.30;;;9.40;;
57615;SDS011;43816;52.054;-9.494;2022-12-08T00:59:24;10.30;;;9.40;;
57615;SDS011;43816;52.054;-9.494;2022-12-08T00:59:34;10.43;;;9.52;;
57615;SDS011;43816;52.054;-9.494;2022-12-08T00:59:44;10.80;;;9.80;;
57615;SDS011;43816;52.054;-9.494;2022-12-08T00:59:54;10.87;;;9.90;;
57615;SDS011;43816;52.054;-9.494;2022-12-08T01:00:05;10.80;;;9.80;;
57615;SDS011;43816;52.054;-9.494;2022-12-08T01:00:16;10.75;;;9.75;;
57615;SDS011;43816;52.054;-9.494;2022-12-08T01:00:27;10.57;;;9.67;;
57615;SDS011;43816;52.054;-9.494;2022-12-08T01:00:39;10.60;;;9.60;;
57615;SDS011;43816;52.054;-9.494;2022-12-08T01:00:50;10.57;;;9.63;;
57615;SDS011;43816;52.054;-9.494;2022-12-08T01:01:00;10.50;;;9.60;;
57615;SDS011;43816;52.054;-9.494;2022-12-08T01:01:10;10.63;;;9.70;;
57615;SDS011;43816;52.054;-9.494;2022-12-08T01:01:22;10.65;;;9.65;;
57615;SDS011;43816;52.054;-9.494;2022-12-08T01:01:32;10.87;;;9.87;;
57615;SDS011;43816;52.054;-9.494;2022-12-08T01:01:44;10.85;;;9.85;;
57615;SDS011;43816;52.054;-9.494;2022-12-08T01:01:55;10.88;;;9.88;;
57615;SDS011;43816;52.054;-9.494;2022-12-08T01:02:06;10.50;;;9.52;;
57615;SDS011;43816;52.054;-9.494;2022-12-08T01:02:16;10.30;;;9.40;;
57615;SDS011;43816;52.054;-9.494;2022-12-08T01:02:26;10.33;;;9.43;;
57615;SDS011;43816;52.054;-9.494;2022-12-08T01:02:36;10.40;;;9.50;;